TimeEDT,TemperatureF,Dew PointF,Humidity,Sea Level PressureIn,VisibilityMPH,Wind Direction,Wind SpeedMPH,Gust SpeedMPH,PrecipitationIn,Events,Conditions,WindDirDegrees,DateUTC
12:15 AM,44.6,42.8,93,28.89,10.0,SSW,9.2,-,0.01,Rain,Light Rain,210,2012-10-30 04:15:00
12:35 AM,44.6,42.8,93,28.89,10.0,SSW,10.4,16.1,0.01,Rain,Light Rain,200,2012-10-30 04:35:00
12:55 AM,44.6,42.8,93,28.89,10.0,SSW,10.4,16.1,0.01,Rain,Rain,210,2012-10-30 04:55:00
1:15 AM,44.6,41.0,87,28.90,10.0,SSW,12.7,20.7,N/A,Rain,Light Rain,210,2012-10-30 05:15:00
1:35 AM,44.6,41.0,87,28.90,10.0,SSW,12.7,19.6,N/A,Rain,Light Rain,210,2012-10-30 05:35:00
1:55 AM,42.8,41.0,93,28.91,10.0,SSW,11.5,18.4,0.01,Rain,Light Rain,200,2012-10-30 05:55:00
2:15 AM,42.8,41.0,93,28.91,10.0,SSW,11.5,19.6,N/A,Rain,Light Rain,200,2012-10-30 06:15:00
2:35 AM,42.8,41.0,93,28.92,10.0,SSW,10.4,18.4,0.02,Rain,Light Rain,210,2012-10-30 06:35:00
2:55 AM,42.8,41.0,93,28.93,10.0,SSW,9.2,17.3,0.02,Rain,Rain,200,2012-10-30 06:55:00
3:55 AM,42.8,41.0,93,28.95,10.0,South,12.7,20.7,0.01,Rain,Light Rain,190,2012-10-30 07:55:00
4:15 AM,42.8,41.0,93,28.95,7.0,South,13.8,-,0.01,Rain,Light Rain,190,2012-10-30 08:15:00
4:35 AM,42.8,41.0,93,28.97,10.0,SSW,13.8,21.9,0.03,Rain,Rain,200,2012-10-30 08:35:00
4:55 AM,42.8,41.0,93,28.98,10.0,SSW,15.0,21.9,0.05,Rain,Light Rain,200,2012-10-30 08:55:00
5:15 AM,42.8,41.0,93,28.99,10.0,South,9.2,16.1,0.01,Rain,Light Rain,190,2012-10-30 09:15:00
5:35 AM,42.8,41.0,93,29.01,10.0,South,10.4,23.0,0.03,Rain,Light Rain,190,2012-10-30 09:35:00
5:55 AM,41.0,41.0,100,29.02,10.0,SSW,11.5,20.7,0.04,Rain,Light Rain,200,2012-10-30 09:55:00
6:15 AM,41.0,41.0,100,29.04,10.0,South,10.4,-,0.01,Rain,Light Rain,190,2012-10-30 10:15:00
6:35 AM,41.0,41.0,100,29.06,10.0,South,9.2,-,0.02,Rain,Light Rain,180,2012-10-30 10:35:00
6:55 AM,41.0,41.0,100,29.07,10.0,South,10.4,-,0.02,Rain,Light Rain,170,2012-10-30 10:55:00
7:15 AM,39.2,39.2,100,29.09,10.0,South,11.5,16.1,N/A,Rain,Light Rain,170,2012-10-30 11:15:00
7:35 AM,39.2,39.2,100,29.10,10.0,South,10.4,-,0.01,Rain,Light Rain,170,2012-10-30 11:35:00
7:55 AM,39.2,39.2,100,29.11,10.0,South,13.8,-,0.02,Rain,Rain,170,2012-10-30 11:55:00
8:15 AM,37.4,37.4,100,29.13,10.0,South,11.5,16.1,N/A,Rain,Light Rain,170,2012-10-30 12:15:00
8:35 AM,37.4,37.4,100,29.14,10.0,South,11.5,17.3,0.01,Rain,Light Rain,170,2012-10-30 12:35:00
8:55 AM,37.4,37.4,100,29.15,10.0,SSE,11.5,16.1,0.01,,Drizzle,160,2012-10-30 12:55:00
9:35 AM,39.2,39.2,100,29.18,10.0,South,9.2,-,0.01,,Drizzle,170,2012-10-30 13:35:00
9:55 AM,39.2,39.2,100,29.20,10.0,SSE,10.4,-,0.01,Rain,Rain,160,2012-10-30 13:55:00
10:15 AM,39.2,39.2,100,29.20,10.0,SSE,9.2,19.6,N/A,,Light Drizzle,160,2012-10-30 14:15:00
10:55 AM,41.0,41.0,100,29.22,10.0,SSE,9.2,-,0.01,,Light Drizzle,160,2012-10-30 14:55:00
11:15 AM,41.0,41.0,100,29.23,10.0,SSE,10.4,18.4,N/A,,Light Drizzle,160,2012-10-30 15:15:00
11:35 AM,41.0,41.0,100,29.24,10.0,SSE,10.4,-,N/A,,Overcast,150,2012-10-30 15:35:00
11:55 AM,41.0,41.0,100,29.25,10.0,SSE,10.4,17.3,N/A,,Overcast,160,2012-10-30 15:55:00
12:15 PM,42.8,41.0,93,29.26,10.0,South,9.2,-,N/A,Rain,Light Rain,170,2012-10-30 16:15:00
12:35 PM,41.0,41.0,100,29.27,10.0,South,9.2,-,N/A,,Light Drizzle,170,2012-10-30 16:35:00
12:55 PM,41.0,41.0,100,29.28,10.0,South,8.1,-,N/A,Rain,Rain,170,2012-10-30 16:55:00
1:15 PM,41.0,41.0,100,29.29,10.0,South,10.4,-,N/A,Rain,Rain,170,2012-10-30 17:15:00
1:35 PM,41.0,39.2,93,29.29,10.0,South,9.2,17.3,N/A,,Drizzle,170,2012-10-30 17:35:00
1:55 PM,41.0,41.0,100,29.30,10.0,South,6.9,17.3,N/A,,Drizzle,180,2012-10-30 17:55:00
2:15 PM,41.0,41.0,100,29.31,10.0,South,9.2,-,N/A,,Drizzle,170,2012-10-30 18:15:00
2:35 PM,41.0,41.0,100,29.31,10.0,South,9.2,-,N/A,,Light Drizzle,170,2012-10-30 18:35:00
2:55 PM,41.0,41.0,100,29.32,10.0,SSE,4.6,-,N/A,,Light Drizzle,160,2012-10-30 18:55:00
3:15 PM,41.0,41.0,100,29.33,10.0,SSE,6.9,-,N/A,,Overcast,160,2012-10-30 19:15:00
3:35 PM,41.0,41.0,100,29.33,10.0,SSE,6.9,-,N/A,,Overcast,160,2012-10-30 19:35:00
3:55 PM,42.8,41.0,93,29.34,10.0,South,6.9,-,N/A,,Overcast,190,2012-10-30 19:55:00
4:15 PM,42.8,37.4,81,29.35,10.0,SSW,9.2,-,N/A,,Overcast,210,2012-10-30 20:15:00
4:35 PM,42.8,37.4,81,29.36,10.0,SSW,9.2,16.1,N/A,,Light Drizzle,210,2012-10-30 20:35:00
4:55 PM,42.8,37.4,81,29.37,10.0,SSW,11.5,-,N/A,,Light Drizzle,210,2012-10-30 20:55:00
5:15 PM,42.8,37.4,81,29.38,10.0,SSW,10.4,-,N/A,,Light Drizzle,210,2012-10-30 21:15:00
5:35 PM,41.0,37.4,87,29.39,10.0,SSW,10.4,18.4,N/A,,Light Drizzle,200,2012-10-30 21:35:00
5:55 PM,41.0,37.4,87,29.40,10.0,SSW,8.1,-,N/A,,Overcast,200,2012-10-30 21:55:00
6:15 PM,41.0,35.6,81,29.41,10.0,SSW,9.2,-,N/A,,Overcast,200,2012-10-30 22:15:00
6:35 PM,41.0,35.6,81,29.41,10.0,SSW,9.2,-,N/A,,Overcast,200,2012-10-30 22:35:00
6:55 PM,41.0,35.6,81,29.42,10.0,South,9.2,-,N/A,,Mostly Cloudy,180,2012-10-30 22:55:00
7:15 PM,41.0,37.4,87,29.43,10.0,South,6.9,-,N/A,,Scattered Clouds,180,2012-10-30 23:15:00
7:35 PM,41.0,37.4,87,29.43,10.0,South,9.2,-,N/A,,Mostly Cloudy,190,2012-10-30 23:35:00
7:55 PM,41.0,37.4,87,29.44,10.0,South,8.1,-,N/A,,Mostly Cloudy,190,2012-10-30 23:55:00
8:15 PM,41.0,37.4,87,29.45,10.0,SSW,8.1,-,N/A,,Scattered Clouds,200,2012-10-31 00:15:00
8:35 PM,41.0,37.4,87,29.46,10.0,SSW,4.6,-,N/A,,Overcast,200,2012-10-31 00:35:00
8:55 PM,41.0,37.4,87,29.46,10.0,South,4.6,-,N/A,,Overcast,180,2012-10-31 00:55:00
9:15 PM,41.0,37.4,87,29.47,10.0,South,6.9,-,N/A,,Light Drizzle,180,2012-10-31 01:15:00
9:35 PM,41.0,37.4,87,29.47,10.0,SSE,4.6,-,N/A,,Light Drizzle,160,2012-10-31 01:35:00
9:55 PM,41.0,37.4,87,29.48,10.0,SSE,3.5,-,N/A,,Light Drizzle,150,2012-10-31 01:55:00
10:15 PM,41.0,37.4,87,29.48,10.0,SSE,4.6,-,N/A,,Light Drizzle,150,2012-10-31 02:15:00
10:35 PM,41.0,37.4,87,29.48,10.0,South,4.6,-,N/A,,Overcast,170,2012-10-31 02:35:00
10:55 PM,41.0,37.4,87,29.48,10.0,SSE,4.6,-,N/A,,Overcast,160,2012-10-31 02:55:00
11:15 PM,39.2,37.4,93,29.48,10.0,Calm,Calm,-,N/A,,Overcast,0,2012-10-31 03:15:00
11:35 PM,39.2,37.4,93,29.48,10.0,Calm,Calm,-,N/A,,Overcast,0,2012-10-31 03:35:00
11:55 PM,41.0,37.4,87,29.47,10.0,Calm,Calm,-,N/A,,Overcast,0,2012-10-31 03:55:00